sensor_id;sensor_type;location;lat;lon;timestamp;P1;durP1;ratioP1;P2;durP2;ratioP2
10469;SDS011;5282;47.052;15.458;2023-02-15T00:01:46;21.63;;;17.77;;
10469;SDS011;5282;47.052;15.458;2023-02-15T00:04:15;23.33;;;17.27;;
10469;SDS011;5282;47.052;15.458;2023-02-15T00:06:43;27.10;;;18.50;;
10469;SDS011;5282;47.052;15.458;2023-02-15T00:09:10;23.50;;;16.73;;
10469;SDS011;5282;47.052;15.458;2023-02-15T00:11:38;24.00;;;17.87;;
10469;SDS011;5282;47.052;15.458;2023-02-15T00:14:19;23.70;;;17.40;;
10469;SDS011;5282;47.052;15.458;2023-02-15T00:16:48;24.30;;;17.37;;
10469;SDS011;5282;47.052;15.458;2023-02-15T00:19:17;23.07;;;18.13;;
10469;SDS011;5282;47.052;15.458;2023-02-15T00:21:45;24.37;;;17.80;;
10469;SDS011;5282;47.052;15.458;2023-02-15T00:24:14;24.63;;;17.63;;
10469;SDS011;5282;47.052;15.458;2023-02-15T00:26:43;22.03;;;17.37;;
10469;SDS011;5282;47.052;15.458;2023-02-15T00:29:10;25.37;;;18.10;;
10469;SDS011;5282;47.052;15.458;2023-02-15T00:31:40;24.13;;;17.60;;
10469;SDS011;5282;47.052;15.458;2023-02-15T00:34:07;24.97;;;19.33;;
10469;SDS011;5282;47.052;15.458;2023-02-15T00:36:38;24.40;;;18.43;;
10469;SDS011;5282;47.052;15.458;2023-02-15T00:39:05;23.93;;;18.70;;
10469;SDS011;5282;47.052;15.458;2023-02-15T00:41:32;27.80;;;19.20;;
10469;SDS011;5282;47.052;15.458;2023-02-15T00:43:59;25.80;;;18.80;;
10469;SDS011;5282;47.052;15.458;2023-02-15T00:46:27;26.03;;;19.50;;
10469;SDS011;5282;47.052;15.458;2023-02-15T00:48:56;23.33;;;18.00;;
10469;SDS011;5282;47.052;15.458;2023-02-15T00:51:22;26.53;;;18.23;;
10469;SDS011;5282;47.052;15.458;2023-02-15T00:53:50;28.50;;;17.93;;
10469;SDS011;5282;47.052;15.458;2023-02-15T00:56:17;24.90;;;18.53;;
10469;SDS011;5282;47.052;15.458;2023-02-15T00:58:45;22.53;;;18.10;;
10469;SDS011;5282;47.052;15.458;2023-02-15T01:01:13;25.10;;;18.73;;
10469;SDS011;5282;47.052;15.458;2023-02-15T01:03:44;25.77;;;19.40;;
10469;SDS011;5282;47.052;15.458;2023-02-15T01:06:14;23.17;;;17.73;;
10469;SDS011;5282;47.052;15.458;2023-02-15T01:08:49;23.00;;;17.77;;
10469;SDS011;5282;47.052;15.458;2023-02-15T01:11:18;22.37;;;17.57;;
10469;SDS011;5282;47.052;15.458;2023-02-15T01:13:54;24.30;;;17.73;;
10469;SDS011;5282;47.052;15.458;2023-02-15T01:16:24;26.80;;;18.53;;
10469;SDS011;5282;47.052;15.458;2023-02-15T01:19:00;25.10;;;19.07;;
10469;SDS011;5282;47.052;15.458;2023-02-15T01:21:32;25.70;;;18.67;;
10469;SDS011;5282;47.052;15.458;2023-02-15T01:24:03;23.77;;;18.30;;
10469;SDS011;5282;47.052;15.458;2023-02-15T01:26:33;26.00;;;19.03;;
10469;SDS011;5282;47.052;15.458;2023-02-15T01:29:06;24.20;;;18.17;;
10469;SDS011;5282;47.052;15.458;2023-02-15T01:31:34;24.87;;;18.27;;
10469;SDS011;5282;47.052;15.458;2023-02-15T01:34:04;23.03;;;18.47;;
10469;SDS011;5282;47.052;15.458;2023-02-15T01:36:36;23.43;;;18.23;;
10469;SDS011;5282;47.052;15.458;2023-02-15T01:39:11;21.80;;;17.43;;
10469;SDS011;5282;47.052;15.458;2023-02-15T01:41:40;26.13;;;18.47;;
10469;SDS011;5282;47.052;15.458;2023-02-15T01:47:20;23.93;;;18.17;;
10469;SDS011;5282;47.052;15.458;2023-02-15T01:49:51;22.27;;;18.17;;
10469;SDS011;5282;47.052;15.458;2023-02-15T01:52:31;25.40;;;18.97;;
10469;SDS011;5282;47.052;15.458;2023-02-15T01:55:07;23.10;;;18.17;;
10469;SDS011;5282;47.052;15.458;2023-02-15T01:57:35;24.73;;;18.73;;
10469;SDS011;5282;47.052;15.458;2023-02-15T02:00:04;25.63;;;18.97;;
10469;SDS011;5282;47.052;15.458;2023-02-15T02:02:33;28.50;;;19.63;;
10469;SDS011;5282;47.052;15.458;2023-02-15T02:05:05;26.73;;;20.07;;
10469;SDS011;5282;47.052;15.458;2023-02-15T02:07:36;25.17;;;18.60;;
10469;SDS011;5282;47.052;15.458;2023-02-15T02:10:06;22.63;;;17.43;;
10469;SDS011;5282;47.052;15.458;2023-02-15T02:12:36;22.07;;;17.67;;
10469;SDS011;5282;47.052;15.458;2023-02-15T02:15:06;23.77;;;18.73;;
10469;SDS011;5282;47.052;15.458;2023-02-15T02:17:37;28.90;;;20.00;;
10469;SDS011;5282;47.052;15.458;2023-02-15T02:20:16;31.80;;;21.33;;
10469;SDS011;5282;47.052;15.458;2023-02-15T02:23:07;32.50;;;21.93;;
10469;SDS011;5282;47.052;15.458;2023-02-15T02:25:56;31.53;;;22.27;;
10469;SDS011;5282;47.052;15.458;2023-02-15T02:28:52;29.53;;;21.77;;
10469;SDS011;5282;47.052;15.458;2023-02-15T02:32:00;34.07;;;22.60;;
10469;SDS011;5282;47.052;15.458;2023-02-15T02:34:40;36.30;;;22.43;;
10469;SDS011;5282;47.052;15.458;2023-02-15T02:37:15;31.30;;;23.13;;
10469;SDS011;5282;47.052;15.458;2023-02-15T02:39:52;32.47;;;21.07;;
10469;SDS011;5282;47.052;15.458;2023-02-15T02:42:28;34.50;;;22.67;;
10469;SDS011;5282;47.052;15.458;2023-02-15T02:45:02;32.43;;;21.83;;
10469;SDS011;5282;47.052;15.458;2023-02-15T02:47:35;34.37;;;23.07;;
10469;SDS011;5282;47.052;15.458;2023-02-15T02:50:08;32.73;;;23.03;;
10469;SDS011;5282;47.052;15.458;2023-02-15T02:52:40;35.07;;;23.17;;
10469;SDS011;5282;47.052;15.458;2023-02-15T02:55:10;35.20;;;24.40;;
10469;SDS011;5282;47.052;15.458;2023-02-15T02:57:44;30.47;;;21.47;;
10469;SDS011;5282;47.052;15.458;2023-02-15T03:00:18;31.37;;;21.87;;
10469;SDS011;5282;47.052;15.458;2023-02-15T03:02:52;34.07;;;21.83;;
10469;SDS011;5282;47.052;15.458;2023-02-15T03:05:26;28.77;;;20.77;;
10469;SDS011;5282;47.052;15.458;2023-02-15T03:07:55;33.77;;;21.73;;
10469;SDS011;5282;47.052;15.458;2023-02-15T03:10:23;35.43;;;22.17;;
10469;SDS011;5282;47.052;15.458;2023-02-15T03:12:50;32.17;;;21.53;;
10469;SDS011;5282;47.052;15.458;2023-02-15T03:15:20;33.60;;;21.97;;
10469;SDS011;5282;47.052;15.458;2023-02-15T03:17:51;32.67;;;22.50;;
10469;SDS011;5282;47.052;15.458;2023-02-15T03:20:23;32.83;;;21.83;;
10469;SDS011;5282;47.052;15.458;2023-02-15T03:22:54;33.10;;;22.03;;
10469;SDS011;5282;47.052;15.458;2023-02-15T03:25:27;33.20;;;22.10;;
10469;SDS011;5282;47.052;15.458;2023-02-15T03:27:59;36.57;;;21.97;;
10469;SDS011;5282;47.052;15.458;2023-02-15T03:30:29;32.40;;;21.60;;
10469;SDS011;5282;47.052;15.458;2023-02-15T03:32:59;33.20;;;21.70;;
10469;SDS011;5282;47.052;15.458;2023-02-15T03:35:36;31.90;;;21.40;;
10469;SDS011;5282;47.052;15.458;2023-02-15T03:38:11;33.37;;;21.67;;
10469;SDS011;5282;47.052;15.458;2023-02-15T03:40:44;32.10;;;21.70;;
10469;SDS011;5282;47.052;15.458;2023-02-15T03:43:32;31.30;;;21.17;;
10469;SDS011;5282;47.052;15.458;2023-02-15T03:46:05;33.30;;;22.37;;
10469;SDS011;5282;47.052;15.458;2023-02-15T03:48:39;31.77;;;22.57;;
10469;SDS011;5282;47.052;15.458;2023-02-15T03:51:12;34.03;;;22.70;;
10469;SDS011;5282;47.052;15.458;2023-02-15T03:54:04;34.80;;;22.00;;
10469;SDS011;5282;47.052;15.458;2023-02-15T03:56:33;31.53;;;21.40;;
10469;SDS011;5282;47.052;15.458;2023-02-15T03:59:02;35.63;;;22.77;;
10469;SDS011;5282;47.052;15.458;2023-02-15T04:01:47;33.70;;;22.23;;
10469;SDS011;5282;47.052;15.458;2023-02-15T04:04:32;32.20;;;22.40;;
10469;SDS011;5282;47.052;15.458;2023-02-15T04:07:01;32.47;;;21.87;;
10469;SDS011;5282;47.052;15.458;2023-02-15T04:09:31;31.10;;;21.47;;
10469;SDS011;5282;47.052;15.458;2023-02-15T04:12:15;33.33;;;22.80;;
10469;SDS011;5282;47.052;15.458;2023-02-15T04:14:42;30.67;;;22.03;;
10469;SDS011;5282;47.052;15.458;2023-02-15T04:17:26;33.20;;;22.90;;
10469;SDS011;5282;47.052;15.458;2023-02-15T04:19:53;33.27;;;23.07;;
10469;SDS011;5282;47.052;15.458;2023-02-15T04:22:38;29.13;;;20.93;;
10469;SDS011;5282;47.052;15.458;2023-02-15T04:25:23;32.90;;;22.73;;
10469;SDS011;5282;47.052;15.458;2023-02-15T04:27:51;34.50;;;23.37;;
10469;SDS011;5282;47.052;15.458;2023-02-15T04:30:20;33.27;;;22.07;;
10469;SDS011;5282;47.052;15.458;2023-02-15T04:32:48;35.27;;;23.03;;
10469;SDS011;5282;47.052;15.458;2023-02-15T04:35:15;31.80;;;21.30;;
10469;SDS011;5282;47.052;15.458;2023-02-15T04:37:42;32.50;;;21.73;;
10469;SDS011;5282;47.052;15.458;2023-02-15T04:40:11;34.40;;;22.90;;
10469;SDS011;5282;47.052;15.458;2023-02-15T04:42:40;31.67;;;22.10;;
10469;SDS011;5282;47.052;15.458;2023-02-15T04:45:07;32.23;;;22.93;;
10469;SDS011;5282;47.052;15.458;2023-02-15T04:47:35;34.97;;;23.20;;
10469;SDS011;5282;47.052;15.458;2023-02-15T04:50:02;31.97;;;22.33;;
10469;SDS011;5282;47.052;15.458;2023-02-15T04:52:29;33.23;;;23.13;;
10469;SDS011;5282;47.052;15.458;2023-02-15T04:54:56;32.20;;;22.07;;
10469;SDS011;5282;47.052;15.458;2023-02-15T04:57:23;32.87;;;22.60;;
10469;SDS011;5282;47.052;15.458;2023-02-15T04:59:51;33.03;;;23.73;;
10469;SDS011;5282;47.052;15.458;2023-02-15T05:02:18;34.67;;;22.80;;
10469;SDS011;5282;47.052;15.458;2023-02-15T05:04:45;34.37;;;23.37;;
10469;SDS011;5282;47.052;15.458;2023-02-15T05:07:12;33.13;;;23.77;;
10469;SDS011;5282;47.052;15.458;2023-02-15T05:09:39;35.27;;;23.47;;
10469;SDS011;5282;47.052;15.458;2023-02-15T05:12:07;34.73;;;23.27;;
10469;SDS011;5282;47.052;15.458;2023-02-15T05:14:33;33.13;;;24.20;;
10469;SDS011;5282;47.052;15.458;2023-02-15T05:17:04;35.10;;;23.90;;
10469;SDS011;5282;47.052;15.458;2023-02-15T05:19:31;33.20;;;22.20;;
10469;SDS011;5282;47.052;15.458;2023-02-15T05:21:58;35.40;;;24.63;;
10469;SDS011;5282;47.052;15.458;2023-02-15T05:24:25;34.37;;;23.97;;
10469;SDS011;5282;47.052;15.458;2023-02-15T05:27:11;36.10;;;25.53;;
10469;SDS011;5282;47.052;15.458;2023-02-15T05:29:56;34.17;;;24.10;;
10469;SDS011;5282;47.052;15.458;2023-02-15T05:32:25;33.80;;;24.27;;
10469;SDS011;5282;47.052;15.458;2023-02-15T05:34:52;34.37;;;22.93;;
10469;SDS011;5282;47.052;15.458;2023-02-15T05:37:19;38.40;;;24.80;;
10469;SDS011;5282;47.052;15.458;2023-02-15T05:39:46;32.77;;;24.03;;
10469;SDS011;5282;47.052;15.458;2023-02-15T05:42:12;33.43;;;22.93;;
10469;SDS011;5282;47.052;15.458;2023-02-15T05:44:39;33.47;;;22.13;;
10469;SDS011;5282;47.052;15.458;2023-02-15T05:47:08;32.80;;;23.53;;
10469;SDS011;5282;47.052;15.458;2023-02-15T05:49:37;33.43;;;22.83;;
10469;SDS011;5282;47.052;15.458;2023-02-15T05:52:04;33.87;;;23.03;;
10469;SDS011;5282;47.052;15.458;2023-02-15T05:54:31;36.33;;;23.37;;
10469;SDS011;5282;47.052;15.458;2023-02-15T05:56:58;35.73;;;23.37;;
10469;SDS011;5282;47.052;15.458;2023-02-15T05:59:25;31.17;;;21.40;;
10469;SDS011;5282;47.052;15.458;2023-02-15T06:01:51;28.33;;;19.37;;
10469;SDS011;5282;47.052;15.458;2023-02-15T06:04:18;31.10;;;20.90;;
10469;SDS011;5282;47.052;15.458;2023-02-15T06:06:47;27.73;;;19.87;;
10469;SDS011;5282;47.052;15.458;2023-02-15T06:09:14;29.20;;;19.77;;
10469;SDS011;5282;47.052;15.458;2023-02-15T06:11:43;26.90;;;19.23;;
10469;SDS011;5282;47.052;15.458;2023-02-15T06:14:10;30.43;;;19.63;;
10469;SDS011;5282;47.052;15.458;2023-02-15T06:16:37;28.83;;;20.00;;
10469;SDS011;5282;47.052;15.458;2023-02-15T06:19:05;27.20;;;18.33;;
10469;SDS011;5282;47.052;15.458;2023-02-15T06:21:32;26.33;;;18.40;;
10469;SDS011;5282;47.052;15.458;2023-02-15T06:24:00;26.93;;;19.10;;
10469;SDS011;5282;47.052;15.458;2023-02-15T06:26:27;27.43;;;18.40;;
10469;SDS011;5282;47.052;15.458;2023-02-15T06:28:54;29.03;;;20.70;;
10469;SDS011;5282;47.052;15.458;2023-02-15T06:31:21;32.83;;;21.33;;
10469;SDS011;5282;47.052;15.458;2023-02-15T06:33:48;31.87;;;20.73;;
10469;SDS011;5282;47.052;15.458;2023-02-15T06:36:15;28.77;;;19.37;;
10469;SDS011;5282;47.052;15.458;2023-02-15T06:38:42;29.33;;;19.70;;
10469;SDS011;5282;47.052;15.458;2023-02-15T06:41:10;32.33;;;21.00;;
10469;SDS011;5282;47.052;15.458;2023-02-15T06:43:39;32.23;;;21.00;;
10469;SDS011;5282;47.052;15.458;2023-02-15T06:46:06;35.27;;;21.57;;
10469;SDS011;5282;47.052;15.458;2023-02-15T06:48:33;35.83;;;22.03;;
10469;SDS011;5282;47.052;15.458;2023-02-15T06:51:00;30.40;;;20.90;;
10469;SDS011;5282;47.052;15.458;2023-02-15T06:53:27;28.83;;;21.37;;
10469;SDS011;5282;47.052;15.458;2023-02-15T06:55:59;33.87;;;21.70;;
10469;SDS011;5282;47.052;15.458;2023-02-15T06:58:30;36.63;;;21.97;;
10469;SDS011;5282;47.052;15.458;2023-02-15T07:00:58;29.07;;;21.23;;
10469;SDS011;5282;47.052;15.458;2023-02-15T07:03:25;31.97;;;21.27;;
10469;SDS011;5282;47.052;15.458;2023-02-15T07:05:54;34.57;;;21.60;;
10469;SDS011;5282;47.052;15.458;2023-02-15T07:08:22;36.87;;;23.23;;
10469;SDS011;5282;47.052;15.458;2023-02-15T07:10:49;34.93;;;22.63;;
10469;SDS011;5282;47.052;15.458;2023-02-15T07:13:17;36.33;;;23.00;;
10469;SDS011;5282;47.052;15.458;2023-02-15T07:15:45;36.43;;;23.13;;
10469;SDS011;5282;47.052;15.458;2023-02-15T07:18:13;32.90;;;23.13;;
10469;SDS011;5282;47.052;15.458;2023-02-15T07:20:40;31.73;;;22.77;;
10469;SDS011;5282;47.052;15.458;2023-02-15T07:23:07;40.27;;;26.93;;
10469;SDS011;5282;47.052;15.458;2023-02-15T07:25:34;38.63;;;25.10;;
10469;SDS011;5282;47.052;15.458;2023-02-15T07:28:02;37.07;;;23.57;;
10469;SDS011;5282;47.052;15.458;2023-02-15T07:30:30;36.23;;;23.90;;
10469;SDS011;5282;47.052;15.458;2023-02-15T07:32:58;35.70;;;24.43;;
10469;SDS011;5282;47.052;15.458;2023-02-15T07:35:46;32.57;;;23.93;;
10469;SDS011;5282;47.052;15.458;2023-02-15T07:38:14;37.27;;;24.30;;
10469;SDS011;5282;47.052;15.458;2023-02-15T07:40:41;37.67;;;24.33;;
10469;SDS011;5282;47.052;15.458;2023-02-15T07:43:11;34.07;;;23.20;;
10469;SDS011;5282;47.052;15.458;2023-02-15T07:45:40;35.50;;;23.63;;
10469;SDS011;5282;47.052;15.458;2023-02-15T07:48:08;34.27;;;24.23;;
10469;SDS011;5282;47.052;15.458;2023-02-15T07:50:35;31.30;;;23.00;;
10469;SDS011;5282;47.052;15.458;2023-02-15T07:53:02;34.13;;;22.87;;
10469;SDS011;5282;47.052;15.458;2023-02-15T07:55:29;35.97;;;24.47;;
10469;SDS011;5282;47.052;15.458;2023-02-15T07:57:56;37.17;;;23.80;;
10469;SDS011;5282;47.052;15.458;2023-02-15T08:00:25;38.13;;;24.13;;
10469;SDS011;5282;47.052;15.458;2023-02-15T08:02:55;38.77;;;24.17;;
10469;SDS011;5282;47.052;15.458;2023-02-15T08:05:42;40.53;;;25.57;;
10469;SDS011;5282;47.052;15.458;2023-02-15T08:08:11;35.87;;;23.63;;
10469;SDS011;5282;47.052;15.458;2023-02-15T08:10:57;37.93;;;24.33;;
10469;SDS011;5282;47.052;15.458;2023-02-15T08:13:42;37.07;;;24.03;;
10469;SDS011;5282;47.052;15.458;2023-02-15T08:16:19;36.37;;;23.87;;
10469;SDS011;5282;47.052;15.458;2023-02-15T08:18:49;38.63;;;24.33;;
10469;SDS011;5282;47.052;15.458;2023-02-15T08:21:18;38.20;;;25.20;;
10469;SDS011;5282;47.052;15.458;2023-02-15T08:23:45;34.33;;;23.83;;
10469;SDS011;5282;47.052;15.458;2023-02-15T08:26:12;40.10;;;24.57;;
10469;SDS011;5282;47.052;15.458;2023-02-15T08:28:40;34.70;;;23.40;;
10469;SDS011;5282;47.052;15.458;2023-02-15T08:31:07;38.40;;;24.47;;
10469;SDS011;5282;47.052;15.458;2023-02-15T08:33:37;43.77;;;25.77;;
10469;SDS011;5282;47.052;15.458;2023-02-15T08:36:06;36.27;;;24.50;;
10469;SDS011;5282;47.052;15.458;2023-02-15T08:38:36;36.73;;;24.83;;
10469;SDS011;5282;47.052;15.458;2023-02-15T08:41:11;38.37;;;25.33;;
10469;SDS011;5282;47.052;15.458;2023-02-15T08:43:39;38.67;;;26.07;;
10469;SDS011;5282;47.052;15.458;2023-02-15T08:46:07;39.13;;;25.13;;
10469;SDS011;5282;47.052;15.458;2023-02-15T08:48:35;39.03;;;25.27;;
10469;SDS011;5282;47.052;15.458;2023-02-15T08:51:06;37.47;;;25.73;;
10469;SDS011;5282;47.052;15.458;2023-02-15T08:53:37;38.03;;;25.37;;
10469;SDS011;5282;47.052;15.458;2023-02-15T08:56:05;41.60;;;26.37;;
10469;SDS011;5282;47.052;15.458;2023-02-15T08:58:33;39.33;;;24.87;;
10469;SDS011;5282;47.052;15.458;2023-02-15T09:01:00;36.03;;;24.80;;
10469;SDS011;5282;47.052;15.458;2023-02-15T09:03:28;40.50;;;25.00;;
10469;SDS011;5282;47.052;15.458;2023-02-15T09:05:58;45.40;;;26.93;;
10469;SDS011;5282;47.052;15.458;2023-02-15T09:08:26;40.43;;;25.40;;
10469;SDS011;5282;47.052;15.458;2023-02-15T09:11:03;38.33;;;25.50;;
10469;SDS011;5282;47.052;15.458;2023-02-15T09:13:31;40.60;;;25.63;;
10469;SDS011;5282;47.052;15.458;2023-02-15T09:15:58;39.87;;;25.83;;
10469;SDS011;5282;47.052;15.458;2023-02-15T09:18:26;39.53;;;25.00;;
10469;SDS011;5282;47.052;15.458;2023-02-15T09:20:53;40.17;;;26.37;;
10469;SDS011;5282;47.052;15.458;2023-02-15T09:23:20;36.47;;;24.40;;
10469;SDS011;5282;47.052;15.458;2023-02-15T09:25:47;40.57;;;26.73;;
10469;SDS011;5282;47.052;15.458;2023-02-15T09:28:16;39.77;;;26.23;;
10469;SDS011;5282;47.052;15.458;2023-02-15T09:30:43;38.23;;;24.77;;
10469;SDS011;5282;47.052;15.458;2023-02-15T09:33:09;40.23;;;25.33;;
10469;SDS011;5282;47.052;15.458;2023-02-15T09:35:36;38.93;;;26.03;;
10469;SDS011;5282;47.052;15.458;2023-02-15T09:38:03;44.40;;;26.67;;
10469;SDS011;5282;47.052;15.458;2023-02-15T09:40:30;35.23;;;24.47;;
10469;SDS011;5282;47.052;15.458;2023-02-15T09:48:47;36.57;;;25.07;;
10469;SDS011;5282;47.052;15.458;2023-02-15T09:51:38;40.30;;;25.63;;
10469;SDS011;5282;47.052;15.458;2023-02-15T09:54:33;40.00;;;24.50;;
10469;SDS011;5282;47.052;15.458;2023-02-15T09:57:10;39.20;;;25.67;;
10469;SDS011;5282;47.052;15.458;2023-02-15T09:59:52;38.37;;;24.33;;
10469;SDS011;5282;47.052;15.458;2023-02-15T10:02:34;37.77;;;25.43;;
10469;SDS011;5282;47.052;15.458;2023-02-15T10:05:16;37.87;;;24.83;;
10469;SDS011;5282;47.052;15.458;2023-02-15T10:08:06;39.47;;;25.80;;
10469;SDS011;5282;47.052;15.458;2023-02-15T10:10:43;38.77;;;25.13;;
10469;SDS011;5282;47.052;15.458;2023-02-15T10:13:23;38.50;;;26.67;;
10469;SDS011;5282;47.052;15.458;2023-02-15T10:16:04;38.53;;;24.67;;
10469;SDS011;5282;47.052;15.458;2023-02-15T10:18:47;39.73;;;26.83;;
10469;SDS011;5282;47.052;15.458;2023-02-15T10:21:23;40.00;;;27.17;;
10469;SDS011;5282;47.052;15.458;2023-02-15T10:27:18;40.80;;;26.47;;
10469;SDS011;5282;47.052;15.458;2023-02-15T10:29:49;37.87;;;24.73;;
10469;SDS011;5282;47.052;15.458;2023-02-15T10:32:30;36.90;;;25.70;;
10469;SDS011;5282;47.052;15.458;2023-02-15T10:35:06;40.23;;;25.47;;
10469;SDS011;5282;47.052;15.458;2023-02-15T10:37:45;39.40;;;26.07;;
10469;SDS011;5282;47.052;15.458;2023-02-15T10:40:21;37.60;;;25.10;;
10469;SDS011;5282;47.052;15.458;2023-02-15T10:42:59;37.43;;;24.90;;
10469;SDS011;5282;47.052;15.458;2023-02-15T10:45:45;38.57;;;24.57;;
10469;SDS011;5282;47.052;15.458;2023-02-15T10:48:25;36.33;;;24.47;;
10469;SDS011;5282;47.052;15.458;2023-02-15T10:51:07;36.40;;;25.60;;
10469;SDS011;5282;47.052;15.458;2023-02-15T10:53:42;38.40;;;25.13;;
10469;SDS011;5282;47.052;15.458;2023-02-15T10:56:20;41.10;;;25.70;;
10469;SDS011;5282;47.052;15.458;2023-02-15T10:58:59;35.67;;;24.00;;
10469;SDS011;5282;47.052;15.458;2023-02-15T11:01:50;41.20;;;24.90;;
10469;SDS011;5282;47.052;15.458;2023-02-15T11:04:39;35.83;;;23.90;;
10469;SDS011;5282;47.052;15.458;2023-02-15T11:07:14;38.83;;;25.10;;
10469;SDS011;5282;47.052;15.458;2023-02-15T11:09:46;35.33;;;24.27;;
10469;SDS011;5282;47.052;15.458;2023-02-15T11:12:15;40.00;;;25.57;;
10469;SDS011;5282;47.052;15.458;2023-02-15T11:14:46;34.57;;;23.90;;
10469;SDS011;5282;47.052;15.458;2023-02-15T11:17:20;37.50;;;25.70;;
10469;SDS011;5282;47.052;15.458;2023-02-15T11:19:56;40.63;;;25.80;;
10469;SDS011;5282;47.052;15.458;2023-02-15T11:22:29;43.33;;;25.13;;
10469;SDS011;5282;47.052;15.458;2023-02-15T11:24:58;37.83;;;24.80;;
10469;SDS011;5282;47.052;15.458;2023-02-15T11:27:27;38.90;;;25.47;;
10469;SDS011;5282;47.052;15.458;2023-02-15T11:29:59;37.53;;;24.97;;
10469;SDS011;5282;47.052;15.458;2023-02-15T11:32:30;35.23;;;24.43;;
10469;SDS011;5282;47.052;15.458;2023-02-15T11:35:01;36.20;;;24.33;;
10469;SDS011;5282;47.052;15.458;2023-02-15T11:37:33;40.13;;;25.77;;
10469;SDS011;5282;47.052;15.458;2023-02-15T11:40:12;42.70;;;25.13;;
10469;SDS011;5282;47.052;15.458;2023-02-15T11:42:46;35.37;;;24.40;;
10469;SDS011;5282;47.052;15.458;2023-02-15T11:45:18;37.07;;;24.30;;
10469;SDS011;5282;47.052;15.458;2023-02-15T11:47:49;35.90;;;24.97;;
10469;SDS011;5282;47.052;15.458;2023-02-15T11:50:20;35.73;;;24.17;;
10469;SDS011;5282;47.052;15.458;2023-02-15T11:52:50;36.43;;;24.77;;
10469;SDS011;5282;47.052;15.458;2023-02-15T11:55:19;37.10;;;25.57;;
10469;SDS011;5282;47.052;15.458;2023-02-15T11:57:50;34.77;;;25.00;;
10469;SDS011;5282;47.052;15.458;2023-02-15T12:00:25;34.37;;;24.47;;
10469;SDS011;5282;47.052;15.458;2023-02-15T12:03:02;39.13;;;25.67;;
10469;SDS011;5282;47.052;15.458;2023-02-15T12:05:37;34.80;;;25.47;;
10469;SDS011;5282;47.052;15.458;2023-02-15T12:08:12;34.53;;;24.93;;
10469;SDS011;5282;47.052;15.458;2023-02-15T12:10:44;36.90;;;24.97;;
10469;SDS011;5282;47.052;15.458;2023-02-15T12:13:23;33.37;;;24.20;;
10469;SDS011;5282;47.052;15.458;2023-02-15T12:15:51;36.27;;;25.00;;
10469;SDS011;5282;47.052;15.458;2023-02-15T12:18:24;34.60;;;24.47;;
10469;SDS011;5282;47.052;15.458;2023-02-15T12:21:02;33.37;;;24.03;;
10469;SDS011;5282;47.052;15.458;2023-02-15T12:23:32;32.93;;;24.63;;
10469;SDS011;5282;47.052;15.458;2023-02-15T12:26:01;38.30;;;24.97;;
10469;SDS011;5282;47.052;15.458;2023-02-15T12:28:31;35.93;;;25.20;;
10469;SDS011;5282;47.052;15.458;2023-02-15T12:31:00;35.53;;;24.80;;
10469;SDS011;5282;47.052;15.458;2023-02-15T12:33:35;34.90;;;24.80;;
10469;SDS011;5282;47.052;15.458;2023-02-15T12:36:11;33.27;;;24.10;;
10469;SDS011;5282;47.052;15.458;2023-02-15T12:38:41;37.33;;;25.37;;
10469;SDS011;5282;47.052;15.458;2023-02-15T12:41:21;36.93;;;24.93;;
10469;SDS011;5282;47.052;15.458;2023-02-15T12:44:01;36.10;;;24.30;;
10469;SDS011;5282;47.052;15.458;2023-02-15T12:46:31;33.80;;;24.53;;
10469;SDS011;5282;47.052;15.458;2023-02-15T12:49:05;36.37;;;26.13;;
10469;SDS011;5282;47.052;15.458;2023-02-15T12:51:48;36.17;;;24.40;;
10469;SDS011;5282;47.052;15.458;2023-02-15T12:54:25;35.00;;;23.07;;
10469;SDS011;5282;47.052;15.458;2023-02-15T12:56:56;35.73;;;23.60;;
10469;SDS011;5282;47.052;15.458;2023-02-15T12:59:23;38.60;;;24.07;;
10469;SDS011;5282;47.052;15.458;2023-02-15T13:01:51;38.80;;;25.10;;
10469;SDS011;5282;47.052;15.458;2023-02-15T13:04:21;36.50;;;25.13;;
10469;SDS011;5282;47.052;15.458;2023-02-15T13:06:53;37.57;;;24.70;;
10469;SDS011;5282;47.052;15.458;2023-02-15T13:09:25;36.63;;;24.83;;
10469;SDS011;5282;47.052;15.458;2023-02-15T13:12:08;33.33;;;24.60;;
10469;SDS011;5282;47.052;15.458;2023-02-15T13:14:42;35.20;;;24.63;;
10469;SDS011;5282;47.052;15.458;2023-02-15T13:17:10;34.73;;;23.97;;
10469;SDS011;5282;47.052;15.458;2023-02-15T13:19:39;32.70;;;23.60;;
10469;SDS011;5282;47.052;15.458;2023-02-15T13:22:12;35.90;;;24.20;;
10469;SDS011;5282;47.052;15.458;2023-02-15T13:24:43;37.33;;;25.03;;
10469;SDS011;5282;47.052;15.458;2023-02-15T13:27:16;35.80;;;24.17;;
10469;SDS011;5282;47.052;15.458;2023-02-15T13:29:48;35.07;;;24.27;;
10469;SDS011;5282;47.052;15.458;2023-02-15T13:32:22;34.03;;;24.30;;
10469;SDS011;5282;47.052;15.458;2023-02-15T13:34:53;41.80;;;26.83;;
10469;SDS011;5282;47.052;15.458;2023-02-15T13:37:27;40.53;;;26.17;;
10469;SDS011;5282;47.052;15.458;2023-02-15T13:40:12;39.20;;;25.77;;
10469;SDS011;5282;47.052;15.458;2023-02-15T13:42:44;41.57;;;26.77;;
10469;SDS011;5282;47.052;15.458;2023-02-15T13:45:21;37.97;;;26.13;;
10469;SDS011;5282;47.052;15.458;2023-02-15T13:47:59;39.10;;;24.60;;
10469;SDS011;5282;47.052;15.458;2023-02-15T13:50:37;38.03;;;26.10;;
10469;SDS011;5282;47.052;15.458;2023-02-15T13:53:22;36.23;;;24.93;;
10469;SDS011;5282;47.052;15.458;2023-02-15T13:56:00;40.03;;;25.80;;
10469;SDS011;5282;47.052;15.458;2023-02-15T13:58:54;36.23;;;25.70;;
10469;SDS011;5282;47.052;15.458;2023-02-15T14:01:34;43.53;;;27.20;;
10469;SDS011;5282;47.052;15.458;2023-02-15T14:04:17;40.40;;;24.73;;
10469;SDS011;5282;47.052;15.458;2023-02-15T14:07:21;42.37;;;24.87;;
10469;SDS011;5282;47.052;15.458;2023-02-15T14:10:00;35.97;;;25.00;;
10469;SDS011;5282;47.052;15.458;2023-02-15T14:12:42;37.07;;;25.40;;
10469;SDS011;5282;47.052;15.458;2023-02-15T14:15:21;36.53;;;25.03;;
10469;SDS011;5282;47.052;15.458;2023-02-15T14:17:59;39.83;;;24.93;;
10469;SDS011;5282;47.052;15.458;2023-02-15T14:20:39;36.70;;;24.77;;
10469;SDS011;5282;47.052;15.458;2023-02-15T14:23:17;34.13;;;24.00;;
10469;SDS011;5282;47.052;15.458;2023-02-15T14:25:58;38.13;;;24.67;;
10469;SDS011;5282;47.052;15.458;2023-02-15T14:28:32;38.73;;;24.20;;
10469;SDS011;5282;47.052;15.458;2023-02-15T14:31:06;34.63;;;24.10;;
10469;SDS011;5282;47.052;15.458;2023-02-15T14:33:39;35.47;;;24.33;;
10469;SDS011;5282;47.052;15.458;2023-02-15T14:36:09;40.23;;;24.60;;
10469;SDS011;5282;47.052;15.458;2023-02-15T14:38:44;37.30;;;24.60;;
10469;SDS011;5282;47.052;15.458;2023-02-15T14:41:23;34.53;;;23.30;;
10469;SDS011;5282;47.052;15.458;2023-02-15T14:43:58;37.20;;;24.87;;
10469;SDS011;5282;47.052;15.458;2023-02-15T14:46:34;39.40;;;25.23;;
10469;SDS011;5282;47.052;15.458;2023-02-15T14:49:06;34.47;;;23.70;;
10469;SDS011;5282;47.052;15.458;2023-02-15T14:51:54;36.33;;;24.17;;
10469;SDS011;5282;47.052;15.458;2023-02-15T14:57:25;38.20;;;24.97;;
10469;SDS011;5282;47.052;15.458;2023-02-15T14:59:55;41.03;;;24.90;;
10469;SDS011;5282;47.052;15.458;2023-02-15T15:02:24;37.10;;;24.60;;
10469;SDS011;5282;47.052;15.458;2023-02-15T15:04:56;42.10;;;25.10;;
10469;SDS011;5282;47.052;15.458;2023-02-15T15:07:46;35.80;;;24.43;;